地図

経路データ

SID SEASON NUMBER BASIN SUBBASIN NAME ISO_TIME NATURE LAT LON WMO_WIND WMO_PRES WMO_AGENCY TRACK_TYPE DIST2LAND LANDFALL IFLAG USA_AGENCY USA_ATCF_ID USA_LAT USA_LON USA_RECORD USA_STATUS USA_WIND USA_PRES USA_SSHS USA_R34_NE USA_R34_SE USA_R34_SW USA_R34_NW USA_R50_NE USA_R50_SE USA_R50_SW USA_R50_NW USA_R64_NE USA_R64_SE USA_R64_SW USA_R64_NW USA_POCI USA_ROCI USA_RMW USA_EYE TOKYO_LAT TOKYO_LON TOKYO_GRADE TOKYO_WIND TOKYO_PRES TOKYO_R50_DIR TOKYO_R50_LONG TOKYO_R50_SHORT TOKYO_R30_DIR TOKYO_R30_LONG TOKYO_R30_SHORT TOKYO_LAND CMA_LAT CMA_LON CMA_CAT CMA_WIND CMA_PRES HKO_LAT HKO_LON HKO_CAT HKO_WIND HKO_PRES NEWDELHI_LAT NEWDELHI_LON NEWDELHI_GRADE NEWDELHI_WIND NEWDELHI_PRES NEWDELHI_CI NEWDELHI_DP NEWDELHI_POCI REUNION_LAT REUNION_LON REUNION_TYPE REUNION_WIND REUNION_PRES REUNION_TNUM REUNION_CI REUNION_RMW REUNION_R34_NE REUNION_R34_SE REUNION_R34_SW REUNION_R34_NW REUNION_R50_NE REUNION_R50_SE REUNION_R50_SW REUNION_R50_NW REUNION_R64_NE REUNION_R64_SE REUNION_R64_SW REUNION_R64_NW BOM_LAT BOM_LON BOM_TYPE BOM_WIND BOM_PRES BOM_TNUM BOM_CI BOM_RMW BOM_R34_NE BOM_R34_SE BOM_R34_SW BOM_R34_NW BOM_R50_NE BOM_R50_SE BOM_R50_SW BOM_R50_NW BOM_R64_NE BOM_R64_SE BOM_R64_SW BOM_R64_NW BOM_ROCI BOM_POCI BOM_EYE BOM_POS_METHOD BOM_PRES_METHOD NADI_LAT NADI_LON NADI_CAT NADI_WIND NADI_PRES WELLINGTON_LAT WELLINGTON_LON WELLINGTON_WIND WELLINGTON_PRES DS824_LAT DS824_LON DS824_STAGE DS824_WIND DS824_PRES TD9636_LAT TD9636_LON TD9636_STAGE TD9636_WIND TD9636_PRES TD9635_LAT TD9635_LON TD9635_WIND TD9635_PRES TD9635_ROCI NEUMANN_LAT NEUMANN_LON NEUMANN_CLASS NEUMANN_WIND NEUMANN_PRES MLC_LAT MLC_LON MLC_CLASS MLC_WIND MLC_PRES USA_GUST BOM_GUST BOM_GUST_PER REUNION_GUST REUNION_GUST_PER USA_SEAHGT USA_SEARAD_NE USA_SEARAD_SE USA_SEARAD_SW USA_SEARAD_NW STORM_SPEED STORM_DIR
1939208N20130 1939 39 WP MM NOT_NAMED 1939-07-27 10:00:00 NR 19.5000 130.200 main 839 810 __________O___ -1 19.5000 130.200 2 9 286
1939208N20130 1939 39 WP MM NOT_NAMED 1939-07-27 12:00:00 NR 19.5859 129.890 main 810 760 __________P___ -1 19.5859 129.890 2 9 286
1939208N20130 1939 39 WP MM NOT_NAMED 1939-07-27 15:00:00 NR 19.7070 129.435 main 760 721 __________P___ -1 19.7070 129.435 2 9 285
1939208N20130 1939 39 WP MM NOT_NAMED 1939-07-27 18:00:00 NR 19.8096 129.006 main 721 682 __________P___ -1 19.8096 129.006 2 8 283
1939208N20130 1939 39 WP MM NOT_NAMED 1939-07-27 21:00:00 NR 19.8835 128.617 main 682 672 __________P___ -1 19.8835 128.617 2 7 281
1939208N20130 1939 39 WP MM NOT_NAMED 1939-07-27 22:00:00 NR 19.9000 128.500 main 672 652 __________O___ -1 19.9000 128.500 2 6 277
1939208N20130 1939 39 WP MM NOT_NAMED 1939-07-28 00:00:00 NR 19.9199 128.285 main 652 621 __________P___ -1 19.9199 128.285 2 6 273
1939208N20130 1939 39 WP MM NOT_NAMED 1939-07-28 03:00:00 NR 19.9247 128.007 main 621 601 __________P___ -1 19.9247 128.007 2 5 269
1939208N20130 1939 39 WP MM NOT_NAMED 1939-07-28 06:00:00 NR 19.9134 127.771 main 601 581 __________P___ -1 19.9134 127.771 2 4 267
1939208N20130 1939 39 WP MM NOT_NAMED 1939-07-28 09:00:00 NR 19.9015 127.565 main 581 571 __________P___ -1 19.9015 127.565 2 4 267
1939208N20130 1939 39 WP MM NOT_NAMED 1939-07-28 10:00:00 NR 19.9000 127.500 main 571 561 __________O___ -1 19.9000 127.500 2 3 268
1939208N20130 1939 39 WP MM NOT_NAMED 1939-07-28 12:00:00 NR 19.8948 127.395 main 561 551 __________P___ -1 19.8948 127.395 2 3 268
1939208N20130 1939 39 WP MM NOT_NAMED 1939-07-28 15:00:00 NR 19.8931 127.257 main 551 531 __________P___ -1 19.8931 127.257 2 3 274
1939208N20130 1939 39 WP MM NOT_NAMED 1939-07-28 18:00:00 NR 19.9129 127.103 main 531 515 __________P___ -1 19.9129 127.103 2 4 283
1939208N20130 1939 39 WP MM NOT_NAMED 1939-07-28 21:00:00 NR 19.9700 126.891 main 515 505 __________P___ -1 19.9700 126.891 2 4 287
1939208N20130 1939 39 WP MM NOT_NAMED 1939-07-28 22:00:00 NR 20.0000 126.800 main 505 485 __________O___ -1 20.0000 126.800 2 7 287
1939208N20130 1939 39 WP MM NOT_NAMED 1939-07-29 00:00:00 NR 20.0698 126.552 main 489 446 __________P___ -1 20.0698 126.552 2 8 288
1939208N20130 1939 39 WP MM NOT_NAMED 1939-07-29 03:00:00 NR 20.2117 126.111 main 446 412 __________P___ -1 20.2117 126.111 2 9 291
1939208N20130 1939 39 WP MM NOT_NAMED 1939-07-29 06:00:00 NR 20.3954 125.628 main 412 391 __________P___ -1 20.3954 125.628 2 10 294
1939208N20130 1939 39 WP MM NOT_NAMED 1939-07-29 09:00:00 NR 20.6177 125.150 main 391 382 __________P___ -1 20.6177 125.150 2 10 297
1939208N20130 1939 39 WP MM NOT_NAMED 1939-07-29 10:00:00 NR 20.7000 125.000 main 382 374 __________O___ -1 20.7000 125.000 2 10 304
1939208N20130 1939 39 WP MM NOT_NAMED 1939-07-29 12:00:00 NR 20.8870 124.728 main 375 360 __________P___ -1 20.8870 124.728 2 9 309
1939208N20130 1939 39 WP MM NOT_NAMED 1939-07-29 15:00:00 NR 21.1996 124.346 main 360 321 __________P___ -1 21.1996 124.346 2 9 313
1939208N20130 1939 39 WP MM NOT_NAMED 1939-07-29 18:00:00 NR 21.5201 123.998 main 321 277 __________P___ -1 21.5201 123.998 2 9 315
1939208N20130 1939 39 WP MM NOT_NAMED 1939-07-29 21:00:00 NR 21.8139 123.692 main 277 262 __________P___ -1 21.8139 123.692 2 8 316
1939208N20130 1939 39 WP MM NOT_NAMED 1939-07-29 22:00:00 NR 21.9000 123.600 main 262 239 __________O___ -1 21.9000 123.600 2 7 311
1939208N20130 1939 39 WP MM NOT_NAMED 1939-07-30 00:00:00 NR 22.0314 123.427 main 239 210 __________P___ -1 22.0314 123.427 2 6 308
1939208N20130 1939 39 WP MM NOT_NAMED 1939-07-30 03:00:00 NR 22.1907 123.205 main 210 186 __________P___ -1 22.1907 123.205 2 5 308
1939208N20130 1939 39 WP MM NOT_NAMED 1939-07-30 06:00:00 NR 22.3243 123.018 main 186 167 __________P___ -1 22.3243 123.018 2 4 309
1939208N20130 1939 39 WP MM NOT_NAMED 1939-07-30 09:00:00 NR 22.4539 122.852 main 167 158 __________P___ -1 22.4539 122.852 2 4 311
1939208N20130 1939 39 WP MM NOT_NAMED 1939-07-30 10:00:00 NR 22.5000 122.800 main 158 144 __________O___ -1 22.5000 122.800 2 4 318
1939208N20130 1939 39 WP MM NOT_NAMED 1939-07-30 12:00:00 NR 22.6213 122.694 main 144 117 __________P___ -1 22.6213 122.694 2 5 323
1939208N20130 1939 39 WP MM NOT_NAMED 1939-07-30 15:00:00 NR 22.8099 122.547 main 117 102 __________P___ -1 22.8099 122.547 2 5 324
1939208N20130 1939 39 WP MM NOT_NAMED 1939-07-30 18:00:00 NR 22.9926 122.405 main 102 91 __________P___ -1 22.9926 122.405 2 4 322
1939208N20130 1939 39 WP MM NOT_NAMED 1939-07-30 21:00:00 NR 23.1538 122.254 main 91 81 __________P___ -1 23.1538 122.254 2 4 318
1939208N20130 1939 39 WP MM NOT_NAMED 1939-07-30 22:00:00 NR 23.2000 122.200 main 81 71 __________O___ -1 23.2000 122.200 2 4 307
1939208N20130 1939 39 WP MM NOT_NAMED 1939-07-31 00:00:00 NR 23.2728 122.081 main 71 51 __________P___ -1 23.2728 122.081 2 4 299
1939208N20130 1939 39 WP MM NOT_NAMED 1939-07-31 03:00:00 NR 23.3568 121.889 main 51 30 __________P___ -1 23.3568 121.889 2 4 292
1939208N20130 1939 39 WP MM NOT_NAMED 1939-07-31 06:00:00 NR 23.4217 121.685 main 30 10 __________P___ -1 23.4217 121.685 2 4 288
1939208N20130 1939 39 WP MM NOT_NAMED 1939-07-31 09:00:00 NR 23.4799 121.472 main 10 0 __________P___ -1 23.4799 121.472 2 4 287
1939208N20130 1939 39 WP MM NOT_NAMED 1939-07-31 10:00:00 NR 23.5000 121.400 main 0 0 __________O___ -1 23.5000 121.400 2 4 287
1939208N20130 1939 39 WP MM NOT_NAMED 1939-07-31 12:00:00 NR 23.5433 121.254 main 0 0 __________P___ -1 23.5433 121.254 2 4 289
1939208N20130 1939 39 WP MM NOT_NAMED 1939-07-31 15:00:00 NR 23.6150 121.030 main 0 0 __________P___ -1 23.6150 121.030 2 4 290
1939208N20130 1939 39 WP MM NOT_NAMED 1939-07-31 18:00:00 NR 23.6924 120.804 main 0 0 __________P___ -1 23.6924 120.804 2 4 291
1939208N20130 1939 39 WP MM NOT_NAMED 1939-07-31 21:00:00 NR 23.7729 120.576 main 0 0 __________P___ -1 23.7729 120.576 2 4 291
1939208N20130 1939 39 WP MM NOT_NAMED 1939-07-31 22:00:00 NR 23.8000 120.500 main 0 __________O___ -1 23.8000 120.500 7 4 293

デジタル台風データ・検索

IBTrACS Databaseについて

本データベースは、米国NOAAが公開する1842年以降の世界の熱帯低気圧のベストトラックデータアーカイブInternational Best Track Archive for Climate Stewardship (IBTrACS)を、ウェブで閲覧しやすい形式に変換したものです。

最終更新日:2021-10-08